sensor_id;sensor_type;location;lat;lon;timestamp;temperature;humidity
14555;DHT22;7364;50.870;4.722;2023-12-04T00:00:55;3.20;99.90
14555;DHT22;7364;50.870;4.722;2023-12-04T00:03:22;3.20;99.90
14555;DHT22;7364;50.870;4.722;2023-12-04T00:05:51;3.20;99.90
14555;DHT22;7364;50.870;4.722;2023-12-04T00:08:18;3.30;99.90
14555;DHT22;7364;50.870;4.722;2023-12-04T00:10:45;3.20;99.90
14555;DHT22;7364;50.870;4.722;2023-12-04T00:13:12;3.20;99.90
14555;DHT22;7364;50.870;4.722;2023-12-04T00:15:39;3.20;99.90
14555;DHT22;7364;50.870;4.722;2023-12-04T00:18:06;3.20;99.90
14555;DHT22;7364;50.870;4.722;2023-12-04T00:20:33;3.20;99.90
14555;DHT22;7364;50.870;4.722;2023-12-04T00:23:02;3.20;99.90
14555;DHT22;7364;50.870;4.722;2023-12-04T00:25:30;3.10;99.90
14555;DHT22;7364;50.870;4.722;2023-12-04T00:27:57;3.10;99.90
14555;DHT22;7364;50.870;4.722;2023-12-04T00:30:24;3.20;99.90
14555;DHT22;7364;50.870;4.722;2023-12-04T00:32:52;3.20;99.90
14555;DHT22;7364;50.870;4.722;2023-12-04T00:35:19;3.20;99.90
14555;DHT22;7364;50.870;4.722;2023-12-04T00:37:46;3.20;99.90
14555;DHT22;7364;50.870;4.722;2023-12-04T00:40:15;3.20;99.90
14555;DHT22;7364;50.870;4.722;2023-12-04T00:42:42;3.20;99.90
14555;DHT22;7364;50.870;4.722;2023-12-04T00:45:09;3.20;99.90
14555;DHT22;7364;50.870;4.722;2023-12-04T00:47:37;3.20;99.90
14555;DHT22;7364;50.870;4.722;2023-12-04T00:50:05;3.20;99.90
14555;DHT22;7364;50.870;4.722;2023-12-04T00:52:32;3.20;99.90
14555;DHT22;7364;50.870;4.722;2023-12-04T00:54:59;3.10;99.90
14555;DHT22;7364;50.870;4.722;2023-12-04T00:57:29;3.20;99.90
14555;DHT22;7364;50.870;4.722;2023-12-04T00:59:56;3.20;99.90
14555;DHT22;7364;50.870;4.722;2023-12-04T01:02:23;3.20;99.90
14555;DHT22;7364;50.870;4.722;2023-12-04T01:04:52;3.20;99.90
14555;DHT22;7364;50.870;4.722;2023-12-04T01:07:19;3.10;99.90
14555;DHT22;7364;50.870;4.722;2023-12-04T01:09:46;3.20;99.90
14555;DHT22;7364;50.870;4.722;2023-12-04T01:12:14;3.10;99.90
14555;DHT22;7364;50.870;4.722;2023-12-04T01:14:42;3.10;99.90
14555;DHT22;7364;50.870;4.722;2023-12-04T01:17:09;3.10;99.90
14555;DHT22;7364;50.870;4.722;2023-12-04T01:19:36;3.10;99.90
14555;DHT22;7364;50.870;4.722;2023-12-04T01:22:04;3.10;99.90
14555;DHT22;7364;50.870;4.722;2023-12-04T01:24:32;3.10;99.90
14555;DHT22;7364;50.870;4.722;2023-12-04T01:26:59;3.10;99.90
14555;DHT22;7364;50.870;4.722;2023-12-04T01:29:26;3.10;99.90
14555;DHT22;7364;50.870;4.722;2023-12-04T01:31:55;3.10;99.90
14555;DHT22;7364;50.870;4.722;2023-12-04T01:34:21;3.10;99.90
14555;DHT22;7364;50.870;4.722;2023-12-04T01:36:48;3.20;99.90
14555;DHT22;7364;50.870;4.722;2023-12-04T01:39:15;3.20;99.90
14555;DHT22;7364;50.870;4.722;2023-12-04T01:41:42;3.20;99.90
14555;DHT22;7364;50.870;4.722;2023-12-04T01:44:10;3.20;99.90
14555;DHT22;7364;50.870;4.722;2023-12-04T01:46:37;3.30;99.90
14555;DHT22;7364;50.870;4.722;2023-12-04T01:49:06;3.40;99.90
14555;DHT22;7364;50.870;4.722;2023-12-04T01:51:33;3.40;99.90
14555;DHT22;7364;50.870;4.722;2023-12-04T01:54:03;3.50;99.90
14555;DHT22;7364;50.870;4.722;2023-12-04T01:56:30;3.40;99.90
14555;DHT22;7364;50.870;4.722;2023-12-04T01:58:58;3.40;99.90
14555;DHT22;7364;50.870;4.722;2023-12-04T02:01:26;3.40;99.90
14555;DHT22;7364;50.870;4.722;2023-12-04T02:03:54;3.40;99.90
14555;DHT22;7364;50.870;4.722;2023-12-04T02:06:24;3.50;99.90
14555;DHT22;7364;50.870;4.722;2023-12-04T02:08:51;3.50;99.90
14555;DHT22;7364;50.870;4.722;2023-12-04T02:11:19;3.50;99.90
14555;DHT22;7364;50.870;4.722;2023-12-04T02:13:46;3.60;99.90
14555;DHT22;7364;50.870;4.722;2023-12-04T02:16:15;3.40;99.90
14555;DHT22;7364;50.870;4.722;2023-12-04T02:18:44;3.40;99.90
14555;DHT22;7364;50.870;4.722;2023-12-04T02:21:11;3.40;99.90
14555;DHT22;7364;50.870;4.722;2023-12-04T02:23:40;3.40;99.90
14555;DHT22;7364;50.870;4.722;2023-12-04T02:26:14;3.40;99.90
14555;DHT22;7364;50.870;4.722;2023-12-04T02:28:46;3.40;99.90
14555;DHT22;7364;50.870;4.722;2023-12-04T02:31:17;3.50;99.90
14555;DHT22;7364;50.870;4.722;2023-12-04T02:33:45;3.50;99.90
14555;DHT22;7364;50.870;4.722;2023-12-04T02:36:14;3.60;99.90
14555;DHT22;7364;50.870;4.722;2023-12-04T02:38:42;3.70;99.90
14555;DHT22;7364;50.870;4.722;2023-12-04T02:41:11;3.70;99.90
14555;DHT22;7364;50.870;4.722;2023-12-04T02:43:38;3.80;99.90
14555;DHT22;7364;50.870;4.722;2023-12-04T02:46:05;3.80;99.90
14555;DHT22;7364;50.870;4.722;2023-12-04T02:48:33;3.70;99.90
14555;DHT22;7364;50.870;4.722;2023-12-04T02:51:00;3.80;99.90
14555;DHT22;7364;50.870;4.722;2023-12-04T02:53:27;3.80;99.90
14555;DHT22;7364;50.870;4.722;2023-12-04T02:55:54;3.90;99.90
14555;DHT22;7364;50.870;4.722;2023-12-04T02:58:23;4.00;99.90
14555;DHT22;7364;50.870;4.722;2023-12-04T03:00:50;4.20;99.90
14555;DHT22;7364;50.870;4.722;2023-12-04T03:03:17;4.00;99.90
14555;DHT22;7364;50.870;4.722;2023-12-04T03:05:45;3.80;99.90
14555;DHT22;7364;50.870;4.722;2023-12-04T03:08:12;3.80;99.90
14555;DHT22;7364;50.870;4.722;2023-12-04T03:10:39;3.60;99.90
14555;DHT22;7364;50.870;4.722;2023-12-04T03:13:06;3.70;99.90
14555;DHT22;7364;50.870;4.722;2023-12-04T03:15:35;3.70;99.90
14555;DHT22;7364;50.870;4.722;2023-12-04T03:18:02;3.70;99.90
14555;DHT22;7364;50.870;4.722;2023-12-04T03:20:29;3.70;99.90
14555;DHT22;7364;50.870;4.722;2023-12-04T03:22:59;3.60;99.90
14555;DHT22;7364;50.870;4.722;2023-12-04T03:25:26;3.60;99.90
14555;DHT22;7364;50.870;4.722;2023-12-04T03:27:53;3.60;99.90
14555;DHT22;7364;50.870;4.722;2023-12-04T03:30:21;3.60;99.90
14555;DHT22;7364;50.870;4.722;2023-12-04T03:32:49;3.70;99.90
14555;DHT22;7364;50.870;4.722;2023-12-04T03:35:16;3.70;99.90
14555;DHT22;7364;50.870;4.722;2023-12-04T03:37:43;3.70;99.90
14555;DHT22;7364;50.870;4.722;2023-12-04T03:40:11;3.80;99.90
14555;DHT22;7364;50.870;4.722;2023-12-04T03:42:39;3.80;99.90
14555;DHT22;7364;50.870;4.722;2023-12-04T03:45:07;3.80;99.90
14555;DHT22;7364;50.870;4.722;2023-12-04T03:47:34;3.90;99.90
14555;DHT22;7364;50.870;4.722;2023-12-04T03:50:04;4.00;99.90
14555;DHT22;7364;50.870;4.722;2023-12-04T03:52:31;4.10;99.90
14555;DHT22;7364;50.870;4.722;2023-12-04T03:54:58;4.10;99.90
14555;DHT22;7364;50.870;4.722;2023-12-04T03:57:26;4.00;99.90
14555;DHT22;7364;50.870;4.722;2023-12-04T03:59:53;3.90;99.90
14555;DHT22;7364;50.870;4.722;2023-12-04T04:02:20;3.90;99.90
14555;DHT22;7364;50.870;4.722;2023-12-04T04:04:51;3.90;99.90
14555;DHT22;7364;50.870;4.722;2023-12-04T04:07:19;3.90;99.90
14555;DHT22;7364;50.870;4.722;2023-12-04T04:09:47;3.90;99.90
14555;DHT22;7364;50.870;4.722;2023-12-04T04:12:14;4.00;99.90
14555;DHT22;7364;50.870;4.722;2023-12-04T04:14:42;3.90;99.90
14555;DHT22;7364;50.870;4.722;2023-12-04T04:17:09;3.90;99.90
14555;DHT22;7364;50.870;4.722;2023-12-04T04:19:36;3.80;99.90
14555;DHT22;7364;50.870;4.722;2023-12-04T04:22:06;3.90;99.90
14555;DHT22;7364;50.870;4.722;2023-12-04T04:24:35;3.80;99.90
14555;DHT22;7364;50.870;4.722;2023-12-04T04:27:02;3.70;99.90
14555;DHT22;7364;50.870;4.722;2023-12-04T04:29:29;3.60;99.90
14555;DHT22;7364;50.870;4.722;2023-12-04T04:31:56;3.60;99.90
14555;DHT22;7364;50.870;4.722;2023-12-04T04:34:23;3.60;99.90
14555;DHT22;7364;50.870;4.722;2023-12-04T04:36:51;3.70;99.90
14555;DHT22;7364;50.870;4.722;2023-12-04T04:39:18;3.60;99.90
14555;DHT22;7364;50.870;4.722;2023-12-04T04:41:46;3.60;99.90
14555;DHT22;7364;50.870;4.722;2023-12-04T04:44:13;3.60;99.90
14555;DHT22;7364;50.870;4.722;2023-12-04T04:46:41;3.80;99.90
14555;DHT22;7364;50.870;4.722;2023-12-04T04:49:08;3.90;99.90
14555;DHT22;7364;50.870;4.722;2023-12-04T04:51:35;3.80;99.90
14555;DHT22;7364;50.870;4.722;2023-12-04T04:54:02;3.60;99.90
14555;DHT22;7364;50.870;4.722;2023-12-04T04:56:30;3.60;99.90
14555;DHT22;7364;50.870;4.722;2023-12-04T04:58:58;3.70;99.90
14555;DHT22;7364;50.870;4.722;2023-12-04T05:01:26;3.70;99.90
14555;DHT22;7364;50.870;4.722;2023-12-04T05:03:53;4.00;99.90
14555;DHT22;7364;50.870;4.722;2023-12-04T05:06:20;4.10;99.90
14555;DHT22;7364;50.870;4.722;2023-12-04T05:08:48;4.00;99.90
14555;DHT22;7364;50.870;4.722;2023-12-04T05:11:16;4.00;99.90
14555;DHT22;7364;50.870;4.722;2023-12-04T05:13:44;3.90;99.90
14555;DHT22;7364;50.870;4.722;2023-12-04T05:16:13;3.80;99.90
14555;DHT22;7364;50.870;4.722;2023-12-04T05:18:41;3.80;99.90
14555;DHT22;7364;50.870;4.722;2023-12-04T05:21:08;3.80;99.90
14555;DHT22;7364;50.870;4.722;2023-12-04T05:23:36;3.90;99.90
14555;DHT22;7364;50.870;4.722;2023-12-04T05:26:05;3.80;99.90
14555;DHT22;7364;50.870;4.722;2023-12-04T05:28:32;3.80;99.90
14555;DHT22;7364;50.870;4.722;2023-12-04T05:31:00;3.70;99.90
14555;DHT22;7364;50.870;4.722;2023-12-04T05:33:28;3.70;99.90
14555;DHT22;7364;50.870;4.722;2023-12-04T05:35:55;3.80;99.90
14555;DHT22;7364;50.870;4.722;2023-12-04T05:38:23;3.80;99.90
14555;DHT22;7364;50.870;4.722;2023-12-04T05:40:51;3.80;99.90
14555;DHT22;7364;50.870;4.722;2023-12-04T05:43:20;3.90;99.90
14555;DHT22;7364;50.870;4.722;2023-12-04T05:45:47;4.00;99.90
14555;DHT22;7364;50.870;4.722;2023-12-04T05:48:14;3.90;99.90
14555;DHT22;7364;50.870;4.722;2023-12-04T05:50:43;3.90;99.90
14555;DHT22;7364;50.870;4.722;2023-12-04T05:53:10;4.10;99.90
14555;DHT22;7364;50.870;4.722;2023-12-04T05:55:38;4.00;99.90
14555;DHT22;7364;50.870;4.722;2023-12-04T05:58:05;4.10;99.90
14555;DHT22;7364;50.870;4.722;2023-12-04T06:00:32;4.20;99.90
14555;DHT22;7364;50.870;4.722;2023-12-04T06:02:59;4.40;99.90
14555;DHT22;7364;50.870;4.722;2023-12-04T06:05:27;4.50;99.90
14555;DHT22;7364;50.870;4.722;2023-12-04T06:07:54;4.40;99.90
14555;DHT22;7364;50.870;4.722;2023-12-04T06:10:23;4.10;99.90
14555;DHT22;7364;50.870;4.722;2023-12-04T06:12:50;4.00;99.90
14555;DHT22;7364;50.870;4.722;2023-12-04T06:15:18;4.10;99.90
14555;DHT22;7364;50.870;4.722;2023-12-04T06:17:45;4.30;99.90
14555;DHT22;7364;50.870;4.722;2023-12-04T06:20:12;4.20;99.90
14555;DHT22;7364;50.870;4.722;2023-12-04T06:22:40;4.10;99.90
14555;DHT22;7364;50.870;4.722;2023-12-04T06:25:10;4.10;99.90
14555;DHT22;7364;50.870;4.722;2023-12-04T06:27:37;4.10;99.90
14555;DHT22;7364;50.870;4.722;2023-12-04T06:30:06;4.10;99.90
14555;DHT22;7364;50.870;4.722;2023-12-04T06:32:34;4.20;99.90
14555;DHT22;7364;50.870;4.722;2023-12-04T06:35:01;4.30;99.90
14555;DHT22;7364;50.870;4.722;2023-12-04T06:37:29;4.10;99.90
14555;DHT22;7364;50.870;4.722;2023-12-04T06:39:58;4.00;99.90
14555;DHT22;7364;50.870;4.722;2023-12-04T06:42:29;4.00;99.90
14555;DHT22;7364;50.870;4.722;2023-12-04T06:44:57;3.90;99.90
14555;DHT22;7364;50.870;4.722;2023-12-04T06:47:24;3.90;99.90
14555;DHT22;7364;50.870;4.722;2023-12-04T06:49:52;4.00;99.90
14555;DHT22;7364;50.870;4.722;2023-12-04T06:52:19;4.00;99.90
14555;DHT22;7364;50.870;4.722;2023-12-04T06:54:46;3.90;99.90
14555;DHT22;7364;50.870;4.722;2023-12-04T06:57:13;3.90;99.90
14555;DHT22;7364;50.870;4.722;2023-12-04T06:59:42;4.00;99.90
14555;DHT22;7364;50.870;4.722;2023-12-04T07:02:09;4.00;99.90
14555;DHT22;7364;50.870;4.722;2023-12-04T07:04:36;3.90;99.90
14555;DHT22;7364;50.870;4.722;2023-12-04T07:07:04;3.90;99.90
14555;DHT22;7364;50.870;4.722;2023-12-04T07:09:32;3.90;99.90
14555;DHT22;7364;50.870;4.722;2023-12-04T07:11:59;3.90;99.90
14555;DHT22;7364;50.870;4.722;2023-12-04T07:14:30;3.90;99.90
14555;DHT22;7364;50.870;4.722;2023-12-04T07:16:58;3.90;99.90
14555;DHT22;7364;50.870;4.722;2023-12-04T07:19:25;3.90;99.90
14555;DHT22;7364;50.870;4.722;2023-12-04T07:21:53;3.90;99.90
14555;DHT22;7364;50.870;4.722;2023-12-04T07:24:20;3.90;99.90
14555;DHT22;7364;50.870;4.722;2023-12-04T07:26:48;3.90;99.90
14555;DHT22;7364;50.870;4.722;2023-12-04T07:29:15;3.90;99.90
14555;DHT22;7364;50.870;4.722;2023-12-04T07:31:43;3.90;99.90
14555;DHT22;7364;50.870;4.722;2023-12-04T07:34:11;3.90;99.90
14555;DHT22;7364;50.870;4.722;2023-12-04T07:36:38;3.90;99.90
14555;DHT22;7364;50.870;4.722;2023-12-04T07:39:06;3.90;99.90
14555;DHT22;7364;50.870;4.722;2023-12-04T07:41:33;4.00;99.90
14555;DHT22;7364;50.870;4.722;2023-12-04T07:44:00;3.90;99.90
14555;DHT22;7364;50.870;4.722;2023-12-04T07:46:27;4.00;99.90
14555;DHT22;7364;50.870;4.722;2023-12-04T07:48:54;4.00;99.90
14555;DHT22;7364;50.870;4.722;2023-12-04T07:51:23;4.00;99.90
14555;DHT22;7364;50.870;4.722;2023-12-04T07:53:50;4.00;99.90
14555;DHT22;7364;50.870;4.722;2023-12-04T07:56:17;4.10;99.90
14555;DHT22;7364;50.870;4.722;2023-12-04T07:58:45;4.00;99.90
14555;DHT22;7364;50.870;4.722;2023-12-04T08:01:12;4.00;99.90
14555;DHT22;7364;50.870;4.722;2023-12-04T08:03:39;4.00;99.90
14555;DHT22;7364;50.870;4.722;2023-12-04T08:06:07;4.00;99.90
14555;DHT22;7364;50.870;4.722;2023-12-04T08:08:35;4.00;99.90
14555;DHT22;7364;50.870;4.722;2023-12-04T08:11:03;4.10;99.90
14555;DHT22;7364;50.870;4.722;2023-12-04T08:13:30;4.10;99.90
14555;DHT22;7364;50.870;4.722;2023-12-04T08:15:57;4.10;99.90
14555;DHT22;7364;50.870;4.722;2023-12-04T08:18:26;4.10;99.90
14555;DHT22;7364;50.870;4.722;2023-12-04T08:20:53;4.10;99.90
14555;DHT22;7364;50.870;4.722;2023-12-04T08:23:20;4.10;99.90
14555;DHT22;7364;50.870;4.722;2023-12-04T08:25:49;4.10;99.90
14555;DHT22;7364;50.870;4.722;2023-12-04T08:28:16;4.10;99.90
14555;DHT22;7364;50.870;4.722;2023-12-04T08:30:43;4.10;99.90
14555;DHT22;7364;50.870;4.722;2023-12-04T08:33:10;4.10;99.90
14555;DHT22;7364;50.870;4.722;2023-12-04T08:35:38;4.10;99.90
14555;DHT22;7364;50.870;4.722;2023-12-04T08:38:05;4.10;99.90
14555;DHT22;7364;50.870;4.722;2023-12-04T08:40:32;4.10;99.90
14555;DHT22;7364;50.870;4.722;2023-12-04T08:43:01;4.20;99.90
14555;DHT22;7364;50.870;4.722;2023-12-04T08:45:29;4.20;99.90
14555;DHT22;7364;50.870;4.722;2023-12-04T08:47:56;4.20;99.90
14555;DHT22;7364;50.870;4.722;2023-12-04T08:50:24;4.20;99.90
14555;DHT22;7364;50.870;4.722;2023-12-04T08:52:51;4.30;99.90
14555;DHT22;7364;50.870;4.722;2023-12-04T08:55:18;4.30;99.90
14555;DHT22;7364;50.870;4.722;2023-12-04T08:57:45;4.30;99.90
14555;DHT22;7364;50.870;4.722;2023-12-04T09:00:15;4.30;99.90
14555;DHT22;7364;50.870;4.722;2023-12-04T09:02:42;4.40;99.90
14555;DHT22;7364;50.870;4.722;2023-12-04T09:05:09;4.40;99.90
14555;DHT22;7364;50.870;4.722;2023-12-04T09:07:37;4.50;99.90
14555;DHT22;7364;50.870;4.722;2023-12-04T09:10:05;4.50;99.90
14555;DHT22;7364;50.870;4.722;2023-12-04T09:12:32;4.50;99.90
14555;DHT22;7364;50.870;4.722;2023-12-04T09:15:01;4.70;99.90
14555;DHT22;7364;50.870;4.722;2023-12-04T09:17:30;4.60;99.90
14555;DHT22;7364;50.870;4.722;2023-12-04T09:19:57;4.50;99.90
14555;DHT22;7364;50.870;4.722;2023-12-04T09:22:24;4.60;99.90
14555;DHT22;7364;50.870;4.722;2023-12-04T09:24:51;4.60;99.90
14555;DHT22;7364;50.870;4.722;2023-12-04T09:27:18;4.60;99.90
14555;DHT22;7364;50.870;4.722;2023-12-04T09:29:47;4.60;99.90
14555;DHT22;7364;50.870;4.722;2023-12-04T09:32:14;4.60;99.90
14555;DHT22;7364;50.870;4.722;2023-12-04T09:34:43;4.70;99.90
14555;DHT22;7364;50.870;4.722;2023-12-04T09:37:10;4.70;99.90
14555;DHT22;7364;50.870;4.722;2023-12-04T09:39:37;4.80;99.90
14555;DHT22;7364;50.870;4.722;2023-12-04T09:42:05;4.90;99.90
14555;DHT22;7364;50.870;4.722;2023-12-04T09:44:34;4.90;99.90
14555;DHT22;7364;50.870;4.722;2023-12-04T09:47:03;4.70;99.90
14555;DHT22;7364;50.870;4.722;2023-12-04T09:49:32;4.70;99.90
14555;DHT22;7364;50.870;4.722;2023-12-04T09:52:01;4.70;99.90
14555;DHT22;7364;50.870;4.722;2023-12-04T09:54:28;4.80;99.90
14555;DHT22;7364;50.870;4.722;2023-12-04T09:56:57;4.70;99.90
14555;DHT22;7364;50.870;4.722;2023-12-04T09:59:26;4.60;99.90
14555;DHT22;7364;50.870;4.722;2023-12-04T10:01:53;4.60;99.90
14555;DHT22;7364;50.870;4.722;2023-12-04T10:04:20;4.70;99.90
14555;DHT22;7364;50.870;4.722;2023-12-04T10:06:50;4.80;99.90
14555;DHT22;7364;50.870;4.722;2023-12-04T10:09:19;4.90;99.90
14555;DHT22;7364;50.870;4.722;2023-12-04T10:11:49;5.00;99.90
14555;DHT22;7364;50.870;4.722;2023-12-04T10:14:18;5.20;99.90
14555;DHT22;7364;50.870;4.722;2023-12-04T10:16:47;5.20;99.90
14555;DHT22;7364;50.870;4.722;2023-12-04T10:19:19;5.10;99.90
14555;DHT22;7364;50.870;4.722;2023-12-04T10:21:48;5.10;99.90
14555;DHT22;7364;50.870;4.722;2023-12-04T10:24:34;5.00;99.90
14555;DHT22;7364;50.870;4.722;2023-12-04T10:27:03;5.00;99.90
14555;DHT22;7364;50.870;4.722;2023-12-04T10:29:42;5.10;99.90
14555;DHT22;7364;50.870;4.722;2023-12-04T10:32:10;5.20;99.90
14555;DHT22;7364;50.870;4.722;2023-12-04T10:34:37;5.20;99.90
14555;DHT22;7364;50.870;4.722;2023-12-04T10:37:05;5.50;99.90
14555;DHT22;7364;50.870;4.722;2023-12-04T10:39:46;5.60;99.90
14555;DHT22;7364;50.870;4.722;2023-12-04T10:42:24;5.80;99.90
14555;DHT22;7364;50.870;4.722;2023-12-04T10:44:52;5.90;99.90
14555;DHT22;7364;50.870;4.722;2023-12-04T10:47:22;6.20;99.90
14555;DHT22;7364;50.870;4.722;2023-12-04T10:49:52;6.20;99.90
14555;DHT22;7364;50.870;4.722;2023-12-04T10:52:19;6.00;99.90
14555;DHT22;7364;50.870;4.722;2023-12-04T10:54:48;5.80;99.90
14555;DHT22;7364;50.870;4.722;2023-12-04T10:57:22;5.70;99.90
14555;DHT22;7364;50.870;4.722;2023-12-04T10:59:52;5.50;99.90
14555;DHT22;7364;50.870;4.722;2023-12-04T11:02:26;5.60;99.90
14555;DHT22;7364;50.870;4.722;2023-12-04T11:04:57;5.60;99.90
14555;DHT22;7364;50.870;4.722;2023-12-04T11:07:26;5.60;99.90
14555;DHT22;7364;50.870;4.722;2023-12-04T11:09:56;5.60;99.90
14555;DHT22;7364;50.870;4.722;2023-12-04T11:12:25;5.50;99.90
14555;DHT22;7364;50.870;4.722;2023-12-04T11:14:59;5.40;99.90
14555;DHT22;7364;50.870;4.722;2023-12-04T11:17:34;5.30;99.90
14555;DHT22;7364;50.870;4.722;2023-12-04T11:20:07;5.30;99.90
14555;DHT22;7364;50.870;4.722;2023-12-04T11:22:38;5.40;99.90
14555;DHT22;7364;50.870;4.722;2023-12-04T11:25:08;5.50;99.90
14555;DHT22;7364;50.870;4.722;2023-12-04T11:27:37;5.60;99.90
14555;DHT22;7364;50.870;4.722;2023-12-04T11:30:06;5.60;99.90
14555;DHT22;7364;50.870;4.722;2023-12-04T11:32:44;5.60;99.90
14555;DHT22;7364;50.870;4.722;2023-12-04T11:35:13;5.70;99.90
14555;DHT22;7364;50.870;4.722;2023-12-04T11:37:42;5.70;99.90
14555;DHT22;7364;50.870;4.722;2023-12-04T11:40:14;5.40;99.90
14555;DHT22;7364;50.870;4.722;2023-12-04T11:42:41;5.50;99.90
14555;DHT22;7364;50.870;4.722;2023-12-04T11:45:18;5.60;99.90
14555;DHT22;7364;50.870;4.722;2023-12-04T11:47:51;5.70;99.90
14555;DHT22;7364;50.870;4.722;2023-12-04T11:50:21;5.50;99.90
14555;DHT22;7364;50.870;4.722;2023-12-04T11:52:50;5.40;99.90
14555;DHT22;7364;50.870;4.722;2023-12-04T11:55:21;5.60;99.90
14555;DHT22;7364;50.870;4.722;2023-12-04T11:57:50;5.60;99.90
14555;DHT22;7364;50.870;4.722;2023-12-04T12:00:21;5.70;99.90
14555;DHT22;7364;50.870;4.722;2023-12-04T12:03:03;5.70;99.90
14555;DHT22;7364;50.870;4.722;2023-12-04T12:05:33;5.70;99.90
14555;DHT22;7364;50.870;4.722;2023-12-04T12:08:02;5.70;99.90
14555;DHT22;7364;50.870;4.722;2023-12-04T12:10:31;5.80;99.90
14555;DHT22;7364;50.870;4.722;2023-12-04T12:12:59;5.90;99.90
14555;DHT22;7364;50.870;4.722;2023-12-04T12:15:27;6.00;99.90
14555;DHT22;7364;50.870;4.722;2023-12-04T12:17:55;5.90;99.90
14555;DHT22;7364;50.870;4.722;2023-12-04T12:20:22;6.00;99.90
14555;DHT22;7364;50.870;4.722;2023-12-04T12:22:49;5.80;99.90
14555;DHT22;7364;50.870;4.722;2023-12-04T12:25:17;5.80;99.90
14555;DHT22;7364;50.870;4.722;2023-12-04T12:27:46;5.90;99.90
14555;DHT22;7364;50.870;4.722;2023-12-04T12:30:13;6.10;99.90
14555;DHT22;7364;50.870;4.722;2023-12-04T12:32:41;6.00;99.90
14555;DHT22;7364;50.870;4.722;2023-12-04T12:35:09;6.00;99.90
14555;DHT22;7364;50.870;4.722;2023-12-04T12:37:38;6.00;99.90
14555;DHT22;7364;50.870;4.722;2023-12-04T12:40:07;5.90;99.90
14555;DHT22;7364;50.870;4.722;2023-12-04T12:42:36;6.00;99.90
14555;DHT22;7364;50.870;4.722;2023-12-04T12:45:09;6.10;99.90
14555;DHT22;7364;50.870;4.722;2023-12-04T12:47:37;6.00;99.90
14555;DHT22;7364;50.870;4.722;2023-12-04T12:50:09;5.80;99.90
14555;DHT22;7364;50.870;4.722;2023-12-04T12:52:38;6.00;99.90
14555;DHT22;7364;50.870;4.722;2023-12-04T12:55:05;6.10;99.90
14555;DHT22;7364;50.870;4.722;2023-12-04T12:57:32;6.20;99.90
14555;DHT22;7364;50.870;4.722;2023-12-04T13:00:00;6.20;99.90
14555;DHT22;7364;50.870;4.722;2023-12-04T13:02:28;6.20;99.90
14555;DHT22;7364;50.870;4.722;2023-12-04T13:05:00;6.20;99.90
14555;DHT22;7364;50.870;4.722;2023-12-04T13:07:27;6.20;99.90
14555;DHT22;7364;50.870;4.722;2023-12-04T13:09:55;6.30;99.90
14555;DHT22;7364;50.870;4.722;2023-12-04T13:12:22;6.50;99.90
14555;DHT22;7364;50.870;4.722;2023-12-04T13:14:49;6.30;99.90
14555;DHT22;7364;50.870;4.722;2023-12-04T13:17:17;6.00;99.90
14555;DHT22;7364;50.870;4.722;2023-12-04T13:19:45;6.00;99.90
14555;DHT22;7364;50.870;4.722;2023-12-04T13:22:13;6.10;99.90
14555;DHT22;7364;50.870;4.722;2023-12-04T13:24:40;6.10;99.90
14555;DHT22;7364;50.870;4.722;2023-12-04T13:27:08;6.40;99.90
14555;DHT22;7364;50.870;4.722;2023-12-04T13:29:35;6.50;99.90
14555;DHT22;7364;50.870;4.722;2023-12-04T13:32:02;6.70;99.90
14555;DHT22;7364;50.870;4.722;2023-12-04T13:34:30;6.70;99.90
14555;DHT22;7364;50.870;4.722;2023-12-04T13:36:59;6.80;99.90
14555;DHT22;7364;50.870;4.722;2023-12-04T13:39:26;6.70;99.90
14555;DHT22;7364;50.870;4.722;2023-12-04T13:42:13;6.50;99.90
14555;DHT22;7364;50.870;4.722;2023-12-04T13:44:57;6.50;99.90
14555;DHT22;7364;50.870;4.722;2023-12-04T13:47:24;6.60;99.90
14555;DHT22;7364;50.870;4.722;2023-12-04T13:49:51;6.70;99.90
14555;DHT22;7364;50.870;4.722;2023-12-04T13:52:21;6.70;99.90
14555;DHT22;7364;50.870;4.722;2023-12-04T13:54:49;6.90;99.90
14555;DHT22;7364;50.870;4.722;2023-12-04T13:57:19;6.80;99.90
14555;DHT22;7364;50.870;4.722;2023-12-04T13:59:48;6.80;99.90
14555;DHT22;7364;50.870;4.722;2023-12-04T14:02:15;6.80;99.90
14555;DHT22;7364;50.870;4.722;2023-12-04T14:04:43;6.80;99.90
14555;DHT22;7364;50.870;4.722;2023-12-04T14:07:10;6.90;99.90
14555;DHT22;7364;50.870;4.722;2023-12-04T14:09:39;7.00;99.90
14555;DHT22;7364;50.870;4.722;2023-12-04T14:12:07;7.10;99.90
14555;DHT22;7364;50.870;4.722;2023-12-04T14:14:35;7.10;99.90
14555;DHT22;7364;50.870;4.722;2023-12-04T14:17:03;7.20;99.90
14555;DHT22;7364;50.870;4.722;2023-12-04T14:19:31;6.90;99.90
14555;DHT22;7364;50.870;4.722;2023-12-04T14:21:58;7.00;99.90
14555;DHT22;7364;50.870;4.722;2023-12-04T14:24:28;6.90;99.90
14555;DHT22;7364;50.870;4.722;2023-12-04T14:26:57;6.50;99.90
14555;DHT22;7364;50.870;4.722;2023-12-04T14:29:24;6.60;99.90
14555;DHT22;7364;50.870;4.722;2023-12-04T14:31:51;6.80;99.90
14555;DHT22;7364;50.870;4.722;2023-12-04T14:34:18;6.70;99.90
14555;DHT22;7364;50.870;4.722;2023-12-04T14:36:46;6.70;99.90
14555;DHT22;7364;50.870;4.722;2023-12-04T14:39:13;6.70;99.90
14555;DHT22;7364;50.870;4.722;2023-12-04T14:41:42;6.70;99.90
14555;DHT22;7364;50.870;4.722;2023-12-04T14:44:10;6.50;99.90
14555;DHT22;7364;50.870;4.722;2023-12-04T14:46:37;6.30;99.90
14555;DHT22;7364;50.870;4.722;2023-12-04T14:49:05;6.30;99.90
14555;DHT22;7364;50.870;4.722;2023-12-04T14:51:32;6.50;99.90
14555;DHT22;7364;50.870;4.722;2023-12-04T14:53:59;6.60;99.90
14555;DHT22;7364;50.870;4.722;2023-12-04T14:56:41;6.50;99.90
14555;DHT22;7364;50.870;4.722;2023-12-04T14:59:36;6.70;99.90
14555;DHT22;7364;50.870;4.722;2023-12-04T15:02:20;6.60;99.90
14555;DHT22;7364;50.870;4.722;2023-12-04T15:05:01;6.50;99.90
14555;DHT22;7364;50.870;4.722;2023-12-04T15:08:11;6.80;99.90
14555;DHT22;7364;50.870;4.722;2023-12-04T15:10:56;6.90;99.90
14555;DHT22;7364;50.870;4.722;2023-12-04T15:13:46;6.90;99.90
14555;DHT22;7364;50.870;4.722;2023-12-04T15:16:22;6.90;99.90
14555;DHT22;7364;50.870;4.722;2023-12-04T15:18:59;6.90;99.90
14555;DHT22;7364;50.870;4.722;2023-12-04T15:21:54;6.90;99.90
14555;DHT22;7364;50.870;4.722;2023-12-04T15:24:21;6.90;99.90
14555;DHT22;7364;50.870;4.722;2023-12-04T15:26:48;7.00;99.90
14555;DHT22;7364;50.870;4.722;2023-12-04T15:29:15;7.00;99.90
14555;DHT22;7364;50.870;4.722;2023-12-04T15:31:46;6.90;99.90
14555;DHT22;7364;50.870;4.722;2023-12-04T15:34:13;6.70;99.90
14555;DHT22;7364;50.870;4.722;2023-12-04T15:36:40;6.60;99.90
14555;DHT22;7364;50.870;4.722;2023-12-04T15:39:06;6.50;99.90
14555;DHT22;7364;50.870;4.722;2023-12-04T15:41:34;6.50;99.90
14555;DHT22;7364;50.870;4.722;2023-12-04T15:44:02;6.40;99.90
14555;DHT22;7364;50.870;4.722;2023-12-04T15:46:28;6.30;99.90
14555;DHT22;7364;50.870;4.722;2023-12-04T15:48:57;6.40;99.90
14555;DHT22;7364;50.870;4.722;2023-12-04T15:51:24;6.40;99.90
14555;DHT22;7364;50.870;4.722;2023-12-04T15:53:51;6.50;99.90
14555;DHT22;7364;50.870;4.722;2023-12-04T15:56:17;6.70;99.90
14555;DHT22;7364;50.870;4.722;2023-12-04T15:58:44;6.60;99.90
14555;DHT22;7364;50.870;4.722;2023-12-04T16:01:13;6.70;99.90
14555;DHT22;7364;50.870;4.722;2023-12-04T16:03:40;6.60;99.90
14555;DHT22;7364;50.870;4.722;2023-12-04T16:06:10;6.50;99.90
14555;DHT22;7364;50.870;4.722;2023-12-04T16:08:38;6.50;99.90
14555;DHT22;7364;50.870;4.722;2023-12-04T16:11:05;6.70;99.90